createdAt,value
2023-04-09T00:02:14.700Z,13.63
2023-04-09T00:04:41.490Z,12.30
2023-04-09T00:07:08.296Z,13.68
2023-04-09T00:09:35.030Z,13.23
2023-04-09T00:12:02.269Z,12.63
2023-04-09T00:14:29.027Z,12.52
2023-04-09T00:16:56.237Z,13.35
2023-04-09T00:19:22.920Z,12.43
2023-04-09T00:21:49.616Z,12.68
2023-04-09T00:24:16.322Z,13.27
2023-04-09T00:26:43.123Z,12.32
2023-04-09T00:29:09.833Z,12.55
2023-04-09T00:31:36.567Z,12.68
2023-04-09T00:34:03.243Z,11.93
2023-04-09T00:36:29.932Z,11.07
2023-04-09T00:38:56.860Z,12.18
2023-04-09T00:41:23.569Z,12.55
2023-04-09T00:43:50.383Z,11.90
2023-04-09T00:46:18.060Z,12.43
2023-04-09T00:48:44.843Z,11.18
2023-04-09T00:51:11.555Z,11.38
2023-04-09T00:53:38.237Z,12.20
2023-04-09T00:56:05.446Z,11.02
2023-04-09T00:58:32.125Z,11.80
2023-04-09T01:00:58.902Z,12.00
2023-04-09T01:03:25.947Z,12.30
2023-04-09T01:06:01.907Z,12.48
2023-04-09T01:08:47.243Z,12.40
2023-04-09T01:11:25.569Z,12.93
2023-04-09T01:13:58.221Z,12.73
2023-04-09T01:16:25.049Z,13.18
2023-04-09T01:19:02.462Z,12.15
2023-04-09T01:21:32.906Z,11.43
2023-04-09T01:24:34.825Z,13.20
2023-04-09T01:27:07.902Z,12.70
2023-04-09T01:32:06.811Z,12.50
2023-04-09T01:34:33.609Z,12.52
2023-04-09T01:37:01.604Z,12.48
2023-04-09T01:39:28.305Z,12.90
2023-04-09T01:41:55.054Z,13.05
2023-04-09T01:44:22.029Z,13.63
2023-04-09T01:46:48.727Z,12.23
2023-04-09T01:49:15.869Z,13.18
2023-04-09T01:51:42.845Z,12.20
2023-04-09T01:54:09.574Z,12.23
2023-04-09T01:56:46.829Z,12.20
2023-04-09T01:59:13.740Z,12.55
2023-04-09T02:02:11.244Z,12.63
2023-04-09T02:04:41.076Z,12.02
2023-04-09T02:07:53.339Z,12.35
2023-04-09T02:10:20.425Z,12.60
2023-04-09T02:12:50.249Z,12.77
2023-04-09T02:15:16.960Z,12.55
2023-04-09T02:17:43.667Z,12.10
2023-04-09T02:20:11.626Z,12.40
2023-04-09T02:22:39.242Z,11.73
2023-04-09T02:25:07.035Z,12.23
2023-04-09T02:27:33.704Z,12.38
2023-04-09T02:30:00.435Z,13.13
2023-04-09T02:32:27.178Z,13.30
2023-04-09T02:34:53.862Z,12.40
2023-04-09T02:37:20.576Z,13.23
2023-04-09T02:39:47.363Z,11.90
2023-04-09T02:42:14.034Z,13.18
2023-04-09T02:44:40.742Z,13.20
2023-04-09T02:47:07.384Z,12.60
2023-04-09T02:49:34.034Z,12.88
2023-04-09T02:52:00.732Z,11.85
2023-04-09T02:54:27.382Z,14.38
2023-04-09T02:56:54.116Z,13.00
2023-04-09T02:59:20.927Z,11.30
2023-04-09T03:01:47.719Z,13.10
2023-04-09T03:04:14.540Z,13.25
2023-04-09T03:06:41.338Z,13.10
2023-04-09T03:09:08.024Z,13.95
2023-04-09T03:11:34.680Z,14.10
2023-04-09T03:14:01.310Z,14.27
2023-04-09T03:16:28.291Z,13.93
2023-04-09T03:18:54.951Z,14.00
2023-04-09T03:21:21.681Z,12.95
2023-04-09T03:23:48.357Z,13.02
2023-04-09T03:26:15.046Z,13.40
2023-04-09T03:28:41.685Z,12.48
2023-04-09T03:31:08.390Z,12.20
2023-04-09T03:33:35.038Z,12.50
2023-04-09T03:36:01.793Z,12.02
2023-04-09T03:38:28.471Z,12.55
2023-04-09T03:40:56.194Z,12.10
2023-04-09T03:43:22.833Z,12.82
2023-04-09T03:45:49.575Z,11.05
2023-04-09T03:48:16.223Z,12.73
2023-04-09T03:50:43.034Z,12.98
2023-04-09T03:53:09.724Z,12.65
2023-04-09T03:55:37.653Z,12.10
2023-04-09T03:58:04.291Z,13.02
2023-04-09T04:00:30.945Z,12.68
2023-04-09T04:02:57.758Z,12.80
2023-04-09T04:05:26.216Z,13.77
2023-04-09T04:07:52.992Z,15.75
2023-04-09T04:10:20.027Z,16.05
2023-04-09T04:12:46.802Z,15.27
2023-04-09T04:15:13.633Z,15.23
2023-04-09T04:17:40.405Z,13.45
2023-04-09T04:20:07.759Z,13.25
2023-04-09T04:22:35.581Z,12.85
2023-04-09T04:25:06.228Z,12.88
2023-04-09T04:27:32.871Z,13.00
2023-04-09T04:30:00.344Z,12.07
2023-04-09T04:32:27.372Z,12.88
2023-04-09T04:34:54.259Z,11.60
2023-04-09T04:37:21.282Z,11.88
2023-04-09T04:39:47.955Z,13.10
2023-04-09T04:42:14.597Z,12.93
2023-04-09T04:44:41.288Z,11.50
2023-04-09T04:47:07.987Z,11.63
2023-04-09T04:49:34.777Z,12.35
2023-04-09T04:52:01.480Z,12.48
2023-04-09T04:54:28.153Z,11.35
2023-04-09T04:56:54.789Z,12.00
2023-04-09T04:59:21.466Z,12.93
2023-04-09T05:01:48.110Z,12.13
2023-04-09T05:04:14.790Z,12.68
2023-04-09T05:06:41.535Z,13.07
2023-04-09T05:09:08.229Z,13.73
2023-04-09T05:11:34.873Z,12.25
2023-04-09T05:14:01.572Z,12.63
2023-04-09T05:16:28.279Z,14.10
2023-04-09T05:18:55.245Z,13.00
2023-04-09T05:21:22.113Z,13.50
2023-04-09T05:23:48.757Z,13.23
2023-04-09T05:26:15.661Z,12.48
2023-04-09T05:28:42.306Z,11.65
2023-04-09T05:31:13.266Z,11.98
2023-04-09T05:33:40.348Z,12.20
2023-04-09T05:36:07.553Z,11.60
2023-04-09T05:38:34.787Z,11.35
2023-04-09T05:44:49.041Z,11.02
2023-04-09T05:47:15.800Z,11.35
2023-04-09T05:49:42.446Z,10.68
2023-04-09T05:52:09.076Z,10.52
2023-04-09T05:54:35.757Z,10.73
2023-04-09T05:57:02.537Z,10.80
2023-04-09T05:59:29.286Z,10.95
2023-04-09T06:02:01.080Z,9.98
2023-04-09T06:04:27.818Z,10.45
2023-04-09T06:06:55.726Z,10.13
2023-04-09T06:09:22.430Z,9.60
2023-04-09T06:11:49.099Z,9.85
2023-04-09T06:14:18.223Z,9.68
2023-04-09T06:16:44.980Z,9.10
2023-04-09T06:19:12.591Z,9.25
2023-04-09T06:21:40.761Z,10.88
2023-04-09T06:24:07.650Z,8.82
2023-04-09T06:26:34.293Z,9.77
2023-04-09T06:29:01.018Z,9.70
2023-04-09T06:31:27.699Z,9.23
2023-04-09T06:33:54.963Z,9.93
2023-04-09T06:36:22.104Z,9.73
2023-04-09T06:38:48.761Z,9.38
2023-04-09T06:41:15.557Z,9.57
2023-04-09T06:43:42.281Z,9.70
2023-04-09T06:46:09.430Z,9.20
2023-04-09T06:48:36.223Z,10.05
2023-04-09T06:51:02.904Z,9.68
2023-04-09T06:53:29.566Z,9.45
2023-04-09T06:55:57.223Z,9.68
2023-04-09T06:58:24.049Z,9.40
2023-04-09T07:00:50.824Z,9.45
2023-04-09T07:03:17.671Z,9.40
2023-04-09T07:05:44.506Z,9.60
2023-04-09T07:08:11.871Z,10.10
2023-04-09T07:10:38.633Z,9.77
2023-04-09T07:13:05.489Z,8.82
2023-04-09T07:15:32.248Z,9.13
2023-04-09T07:17:59.049Z,8.90
2023-04-09T07:20:25.839Z,9.20
2023-04-09T07:22:52.567Z,10.05
2023-04-09T07:25:19.414Z,8.65
2023-04-09T07:27:46.127Z,9.48
2023-04-09T07:30:12.968Z,9.43
2023-04-09T07:32:39.987Z,9.30
2023-04-09T07:35:08.116Z,8.88
2023-04-09T07:37:34.784Z,9.20
2023-04-09T07:40:03.174Z,9.55
2023-04-09T07:42:30.566Z,8.05
2023-04-09T07:44:57.275Z,8.80
2023-04-09T07:47:24.216Z,8.63
2023-04-09T07:49:51.462Z,8.70
2023-04-09T07:52:18.229Z,9.18
2023-04-09T07:54:44.950Z,8.48
2023-04-09T07:57:11.617Z,7.53
2023-04-09T07:59:38.358Z,7.50
2023-04-09T08:02:05.217Z,7.13
2023-04-09T08:04:32.160Z,6.10
2023-04-09T08:06:58.952Z,5.75
2023-04-09T08:09:25.768Z,5.32
2023-04-09T08:11:53.368Z,5.85
2023-04-09T08:14:20.101Z,6.15
2023-04-09T08:16:47.785Z,5.68
2023-04-09T08:19:15.968Z,6.07
2023-04-09T08:21:43.365Z,6.35
2023-04-09T08:24:11.764Z,6.70
2023-04-09T08:26:39.271Z,7.20
2023-04-09T08:29:06.041Z,6.97
2023-04-09T08:31:32.858Z,7.18
2023-04-09T08:33:59.549Z,6.82
2023-04-09T08:36:29.017Z,6.80
2023-04-09T08:38:56.732Z,6.38
2023-04-09T08:41:28.701Z,6.95
2023-04-09T08:43:58.846Z,7.55
2023-04-09T08:46:27.248Z,6.53
2023-04-09T08:48:54.352Z,6.18
2023-04-09T08:51:23.020Z,4.97
2023-04-09T08:53:55.472Z,5.43
2023-04-09T08:56:22.392Z,5.78
2023-04-09T08:58:49.819Z,5.72
2023-04-09T09:01:27.268Z,6.20
2023-04-09T09:04:00.581Z,5.47
2023-04-09T09:06:30.150Z,6.10
2023-04-09T09:09:13.286Z,5.05
2023-04-09T09:11:48.414Z,5.97
2023-04-09T09:14:16.774Z,5.47
2023-04-09T09:16:46.256Z,5.35
2023-04-09T09:19:25.154Z,5.07
2023-04-09T09:21:59.140Z,5.00
2023-04-09T09:24:25.906Z,5.35
2023-04-09T09:26:54.453Z,5.07
2023-04-09T09:29:21.437Z,5.40
2023-04-09T09:31:52.686Z,5.18
2023-04-09T09:34:20.859Z,4.75
2023-04-09T09:36:48.252Z,6.15
2023-04-09T09:39:17.446Z,5.60
2023-04-09T09:41:45.075Z,5.13
2023-04-09T09:44:12.748Z,5.85
2023-04-09T09:46:42.738Z,4.90
2023-04-09T09:49:09.695Z,5.78
2023-04-09T09:51:37.925Z,5.72
2023-04-09T09:54:04.632Z,5.20
2023-04-09T09:56:33.700Z,5.88
2023-04-09T09:59:07.640Z,6.57
2023-04-09T10:01:35.710Z,5.82
2023-04-09T10:04:03.078Z,6.40
2023-04-09T10:06:30.321Z,6.55
2023-04-09T10:08:58.333Z,4.43
2023-04-09T10:11:25.328Z,4.22
2023-04-09T10:13:56.115Z,5.22
2023-04-09T10:16:23.464Z,5.72
2023-04-09T10:18:50.539Z,5.70
2023-04-09T10:21:48.725Z,5.32
2023-04-09T10:24:16.178Z,5.63
2023-04-09T10:26:44.738Z,5.60
2023-04-09T10:29:15.779Z,5.03
2023-04-09T10:31:54.395Z,5.25
2023-04-09T10:34:27.171Z,4.80
2023-04-09T10:36:57.013Z,5.25
2023-04-09T10:39:28.574Z,4.80
2023-04-09T10:41:55.914Z,4.88
2023-04-09T10:44:23.914Z,4.53
2023-04-09T10:46:53.363Z,4.53
2023-04-09T10:49:22.335Z,4.18
2023-04-09T10:52:03.437Z,4.03
2023-04-09T10:54:36.085Z,3.45
2023-04-09T10:57:11.359Z,3.53
2023-04-09T10:59:41.217Z,3.75
2023-04-09T11:02:09.646Z,3.70
2023-04-09T11:04:48.324Z,3.70
2023-04-09T11:07:15.872Z,3.65
2023-04-09T11:09:42.528Z,3.45
2023-04-09T11:12:11.854Z,4.10
2023-04-09T11:14:38.550Z,3.28
2023-04-09T11:17:05.999Z,4.22
2023-04-09T11:19:35.874Z,3.33
2023-04-09T11:22:07.011Z,3.70
2023-04-09T11:24:43.542Z,3.97
2023-04-09T11:27:10.276Z,3.53
2023-04-09T11:29:36.957Z,3.78
2023-04-09T11:32:05.406Z,3.88
2023-04-09T11:34:32.538Z,3.42
2023-04-09T11:36:59.904Z,3.28
2023-04-09T11:39:26.691Z,3.20
2023-04-09T11:41:53.475Z,4.20
2023-04-09T11:44:23.373Z,3.75
2023-04-09T11:46:50.524Z,4.07
2023-04-09T11:49:17.755Z,3.58
2023-04-09T11:51:44.424Z,4.03
2023-04-09T11:54:11.940Z,3.80
2023-04-09T11:56:38.607Z,3.42
2023-04-09T11:59:05.673Z,3.30
2023-04-09T12:01:33.172Z,3.17
2023-04-09T12:04:01.465Z,3.38
2023-04-09T12:06:28.698Z,2.70
2023-04-09T12:08:59.324Z,3.08
2023-04-09T12:11:31.714Z,2.88
2023-04-09T12:14:05.138Z,2.28
2023-04-09T12:16:35.827Z,2.90
2023-04-09T12:19:03.690Z,2.78
2023-04-09T12:21:54.703Z,3.08
2023-04-09T12:24:26.161Z,3.00
2023-04-09T12:26:52.818Z,2.70
2023-04-09T12:29:21.328Z,3.00
2023-04-09T12:31:48.088Z,3.25
2023-04-09T12:34:14.838Z,2.80
2023-04-09T12:36:44.268Z,3.45
2023-04-09T12:39:11.101Z,3.20
2023-04-09T12:41:37.812Z,3.55
2023-04-09T12:44:07.395Z,2.97
2023-04-09T12:46:34.128Z,3.08
2023-04-09T12:49:01.048Z,3.40
2023-04-09T12:51:28.661Z,3.22
2023-04-09T12:53:55.588Z,3.05
2023-04-09T12:56:22.890Z,3.30
2023-04-09T12:58:49.575Z,3.05
2023-04-09T13:01:16.261Z,3.17
2023-04-09T13:03:43.137Z,2.72
2023-04-09T13:06:10.033Z,3.15
2023-04-09T13:08:36.730Z,2.80
2023-04-09T13:11:04.504Z,2.60
2023-04-09T13:13:31.603Z,2.78
2023-04-09T13:15:58.308Z,2.78
2023-04-09T13:18:25.016Z,2.90
2023-04-09T13:20:51.823Z,2.97
2023-04-09T13:23:18.460Z,2.72
2023-04-09T13:25:45.329Z,2.72
2023-04-09T13:28:11.981Z,2.40
2023-04-09T13:30:38.716Z,2.63
2023-04-09T13:33:05.658Z,2.60
2023-04-09T13:35:32.449Z,3.13
2023-04-09T13:37:59.134Z,2.92
2023-04-09T13:40:25.992Z,2.70
2023-04-09T13:42:52.636Z,2.83
2023-04-09T13:45:20.731Z,3.03
2023-04-09T13:47:47.409Z,3.20
2023-04-09T13:50:14.203Z,2.70
2023-04-09T13:52:40.874Z,3.10
2023-04-09T13:55:08.453Z,2.83
2023-04-09T13:57:35.183Z,3.03
2023-04-09T14:00:04.598Z,3.45
2023-04-09T14:02:31.960Z,2.47
2023-04-09T14:04:58.896Z,2.90
2023-04-09T14:07:25.549Z,2.75
2023-04-09T14:09:52.205Z,3.28
2023-04-09T14:12:18.912Z,2.92
2023-04-09T14:14:45.606Z,3.15
2023-04-09T14:17:12.322Z,3.42
2023-04-09T14:19:39.334Z,2.85
2023-04-09T14:22:07.402Z,3.10
2023-04-09T14:24:40.010Z,3.42
2023-04-09T14:27:07.800Z,3.42
2023-04-09T14:29:34.928Z,3.35
2023-04-09T14:32:01.671Z,3.33
2023-04-09T14:34:31.525Z,3.25
2023-04-09T14:36:58.183Z,3.13
2023-04-09T14:39:24.914Z,3.00
2023-04-09T14:41:52.031Z,3.67
2023-04-09T14:44:18.758Z,3.95
2023-04-09T14:46:45.487Z,3.70
2023-04-09T14:49:12.210Z,3.20
2023-04-09T14:51:38.928Z,3.25
2023-04-09T14:54:05.656Z,3.60
2023-04-09T14:56:32.341Z,3.75
2023-04-09T14:58:59.027Z,3.53
2023-04-09T15:01:27.008Z,3.70
2023-04-09T15:03:55.343Z,3.50
2023-04-09T15:06:22.273Z,3.55
2023-04-09T15:08:48.968Z,2.85
2023-04-09T15:11:20.344Z,3.30
2023-04-09T15:13:47.045Z,3.25
2023-04-09T15:16:37.349Z,3.25
2023-04-09T15:19:04.342Z,3.92
2023-04-09T15:21:31.821Z,3.63
2023-04-09T15:23:59.150Z,3.08
2023-04-09T15:26:27.288Z,3.40
2023-04-09T15:29:02.496Z,3.65
2023-04-09T15:31:29.163Z,3.15
2023-04-09T15:33:56.083Z,3.22
2023-04-09T15:36:22.726Z,3.30
2023-04-09T15:38:49.419Z,3.47
2023-04-09T15:41:17.862Z,3.75
2023-04-09T15:43:44.596Z,3.58
2023-04-09T15:46:11.683Z,3.28
2023-04-09T15:48:38.373Z,3.30
2023-04-09T15:51:05.420Z,3.42
2023-04-09T15:53:32.060Z,3.33
2023-04-09T15:55:59.050Z,3.60
2023-04-09T15:58:25.926Z,4.32
2023-04-09T16:00:52.753Z,4.13
2023-04-09T16:03:19.592Z,4.07
2023-04-09T16:05:47.599Z,4.63
2023-04-09T16:08:14.483Z,3.97
2023-04-09T16:10:41.372Z,3.70
2023-04-09T16:13:08.045Z,4.32
2023-04-09T16:15:35.284Z,3.83
2023-04-09T16:18:02.334Z,4.50
2023-04-09T16:20:29.485Z,4.25
2023-04-09T16:22:56.112Z,3.78
2023-04-09T16:25:24.564Z,4.55
2023-04-09T16:27:51.250Z,3.90
2023-04-09T16:30:18.040Z,4.63
2023-04-09T16:32:44.740Z,4.72
2023-04-09T16:35:11.451Z,4.15
2023-04-09T16:37:38.828Z,4.20
2023-04-09T16:40:06.060Z,3.58
2023-04-09T16:42:32.928Z,3.70
2023-04-09T16:44:59.607Z,4.18
2023-04-09T16:47:26.286Z,3.70
2023-04-09T16:49:52.991Z,3.90
2023-04-09T16:52:19.652Z,3.45
2023-04-09T16:54:46.391Z,4.00
2023-04-09T16:57:13.083Z,3.58
2023-04-09T16:59:42.562Z,3.60
2023-04-09T17:02:09.659Z,3.80
2023-04-09T17:04:38.265Z,3.72
2023-04-09T17:07:05.049Z,3.00
2023-04-09T17:09:31.834Z,3.70
2023-04-09T17:11:58.539Z,3.50
2023-04-09T17:14:25.367Z,3.80
2023-04-09T17:16:53.853Z,3.85
2023-04-09T17:19:20.609Z,3.90
2023-04-09T17:21:47.471Z,3.63
2023-04-09T17:24:14.148Z,3.90
2023-04-09T17:26:40.801Z,3.75
2023-04-09T17:29:07.518Z,3.75
2023-04-09T17:31:34.177Z,3.28
2023-04-09T17:34:00.848Z,3.45
2023-04-09T17:36:27.884Z,3.88
2023-04-09T17:38:56.666Z,4.13
2023-04-09T17:41:24.125Z,4.78
2023-04-09T17:43:50.992Z,4.50
2023-04-09T17:46:18.094Z,3.97
2023-04-09T17:48:44.946Z,4.97
2023-04-09T17:51:18.520Z,4.65
2023-04-09T17:53:45.391Z,4.72
2023-04-09T17:56:16.819Z,4.60
2023-04-09T17:58:49.235Z,4.45
2023-04-09T18:01:16.046Z,4.97
2023-04-09T18:03:43.044Z,5.00
2023-04-09T18:06:10.091Z,4.95
2023-04-09T18:08:36.992Z,4.65
2023-04-09T18:11:12.816Z,4.85
2023-04-09T18:13:40.402Z,4.72
2023-04-09T18:16:11.379Z,4.70
2023-04-09T18:18:38.646Z,4.72
2023-04-09T18:21:06.408Z,4.50
2023-04-09T18:23:33.613Z,4.78
2023-04-09T18:26:00.316Z,5.10
2023-04-09T18:28:28.129Z,4.85
2023-04-09T18:30:54.912Z,4.88
2023-04-09T18:33:21.808Z,4.80
2023-04-09T18:35:48.583Z,4.75
2023-04-09T18:38:15.271Z,5.00
2023-04-09T18:40:45.894Z,6.00
2023-04-09T18:43:12.617Z,4.75
2023-04-09T18:45:42.108Z,5.10
2023-04-09T18:48:08.996Z,4.78
2023-04-09T18:50:36.182Z,5.10
2023-04-09T18:53:03.764Z,5.18
2023-04-09T18:55:30.800Z,5.20
2023-04-09T18:57:57.595Z,5.75
2023-04-09T19:00:24.393Z,4.78
2023-04-09T19:02:51.375Z,5.07
2023-04-09T19:05:18.306Z,5.30
2023-04-09T19:07:44.970Z,5.53
2023-04-09T19:10:12.742Z,5.57
2023-04-09T19:12:39.717Z,5.30
2023-04-09T19:15:07.522Z,5.47
2023-04-09T19:17:34.242Z,5.82
2023-04-09T19:20:01.165Z,5.35
2023-04-09T19:22:28.195Z,5.70
2023-04-09T19:24:54.924Z,6.38
2023-04-09T19:27:21.559Z,5.93
2023-04-09T19:29:48.218Z,5.22
2023-04-09T19:32:14.889Z,5.65
2023-04-09T19:34:41.582Z,5.82
2023-04-09T19:37:08.239Z,5.40
2023-04-09T19:39:34.975Z,6.25
2023-04-09T19:42:02.843Z,5.38
2023-04-09T19:44:29.545Z,5.70
2023-04-09T19:46:56.521Z,5.57
2023-04-09T19:49:23.306Z,5.65
2023-04-09T19:51:49.967Z,5.68
2023-04-09T19:54:16.700Z,5.93
2023-04-09T19:56:43.352Z,5.78
2023-04-09T19:59:10.023Z,5.55
2023-04-09T20:01:36.860Z,5.93
2023-04-09T20:04:04.060Z,5.97
2023-04-09T20:06:30.867Z,6.20
2023-04-09T20:08:57.526Z,5.95
2023-04-09T20:11:24.265Z,6.93
2023-04-09T20:13:52.086Z,6.28
2023-04-09T20:16:18.950Z,5.97
2023-04-09T20:18:45.701Z,6.40
2023-04-09T20:21:14.539Z,7.07
2023-04-09T20:23:41.435Z,6.78
2023-04-09T20:26:11.056Z,8.30
2023-04-09T20:28:37.792Z,7.35
2023-04-09T20:31:04.635Z,7.72
2023-04-09T20:33:32.212Z,8.73
2023-04-09T20:35:59.318Z,8.48
2023-04-09T20:38:26.252Z,7.93
2023-04-09T20:40:53.087Z,8.60
2023-04-09T20:43:20.549Z,7.68
2023-04-09T20:45:47.548Z,7.47
2023-04-09T20:48:14.949Z,7.05
2023-04-09T20:50:42.224Z,8.27
2023-04-09T20:53:08.898Z,7.57
2023-04-09T20:55:35.780Z,7.80
2023-04-09T20:58:02.927Z,7.90
2023-04-09T21:00:29.855Z,7.47
2023-04-09T21:02:56.648Z,6.78
2023-04-09T21:05:24.372Z,7.45
2023-04-09T21:07:54.442Z,7.97
2023-04-09T21:10:21.387Z,8.75
2023-04-09T21:12:48.228Z,8.20
2023-04-09T21:15:15.002Z,7.90
2023-04-09T21:17:41.754Z,7.43
2023-04-09T21:20:08.951Z,7.78
2023-04-09T21:22:36.097Z,7.82
2023-04-09T21:25:03.511Z,7.45
2023-04-09T21:27:30.367Z,7.35
2023-04-09T21:29:57.589Z,8.68
2023-04-09T21:32:25.233Z,7.65
2023-04-09T21:34:52.063Z,8.02
2023-04-09T21:37:18.726Z,7.75
2023-04-09T21:39:45.385Z,8.77
2023-04-09T21:42:12.069Z,7.85
2023-04-09T21:44:39.086Z,8.30
2023-04-09T21:47:08.994Z,8.13
2023-04-09T21:49:40.449Z,8.80
2023-04-09T21:52:14.386Z,8.40
2023-04-09T21:54:42.249Z,8.82
2023-04-09T21:57:09.172Z,8.40
2023-04-09T21:59:38.633Z,8.05
2023-04-09T22:02:05.761Z,9.13
2023-04-09T22:04:35.014Z,9.25
2023-04-09T22:07:02.480Z,8.85
2023-04-09T22:09:29.156Z,9.00
2023-04-09T22:11:56.036Z,9.27
2023-04-09T22:14:22.705Z,8.68
2023-04-09T22:16:49.378Z,9.50
2023-04-09T22:19:16.148Z,9.85
2023-04-09T22:21:42.866Z,9.27
2023-04-09T22:24:09.570Z,9.52
2023-04-09T22:26:36.247Z,9.23
2023-04-09T22:29:04.450Z,9.65
2023-04-09T22:31:33.481Z,9.77
2023-04-09T22:34:09.945Z,10.77
2023-04-09T22:36:40.269Z,9.80
2023-04-09T22:39:06.999Z,10.00
2023-04-09T22:41:33.703Z,8.77
2023-04-09T22:44:01.321Z,8.25
2023-04-09T22:46:28.968Z,9.48
2023-04-09T22:49:02.313Z,9.80
2023-04-09T22:51:31.515Z,9.98
2023-04-09T22:53:58.245Z,10.02
2023-04-09T22:56:25.608Z,9.38
2023-04-09T22:58:52.554Z,9.75
2023-04-09T23:01:22.285Z,10.13
2023-04-09T23:03:50.106Z,9.85
2023-04-09T23:06:19.590Z,9.35
2023-04-09T23:08:46.651Z,9.02
2023-04-09T23:11:13.437Z,9.90
2023-04-09T23:13:40.480Z,9.77
2023-04-09T23:16:07.986Z,9.52
2023-04-09T23:18:35.491Z,9.52
2023-04-09T23:21:09.413Z,9.73
2023-04-09T23:23:36.637Z,9.95
2023-04-09T23:26:03.445Z,10.18
2023-04-09T23:28:30.695Z,9.23
2023-04-09T23:30:57.384Z,10.02
2023-04-09T23:33:24.130Z,10.15
2023-04-09T23:35:50.997Z,9.73
2023-04-09T23:38:17.807Z,10.18
2023-04-09T23:40:44.460Z,9.95
2023-04-09T23:43:11.155Z,9.45
2023-04-09T23:45:37.880Z,9.55
2023-04-09T23:48:06.241Z,10.63
2023-04-09T23:50:33.049Z,10.18
2023-04-09T23:53:03.441Z,9.30
2023-04-09T23:55:30.214Z,9.88
2023-04-09T23:57:56.943Z,10.13
